createdAt,value
2023-05-14T00:01:00.002Z,67.29
2023-05-14T00:03:27.968Z,67.00
2023-05-14T00:05:56.011Z,68.04
2023-05-14T00:08:23.775Z,68.54
2023-05-14T00:10:51.706Z,70.54
2023-05-14T00:13:19.586Z,71.03
2023-05-14T00:15:48.837Z,68.98
2023-05-14T00:18:16.664Z,68.18
2023-05-14T00:20:44.482Z,68.82
2023-05-14T00:23:12.302Z,68.42
2023-05-14T00:25:40.115Z,68.21
2023-05-14T00:28:07.975Z,68.57
2023-05-14T00:30:35.833Z,69.32
2023-05-14T00:33:05.214Z,69.77
2023-05-14T00:35:35.180Z,70.94
2023-05-14T00:38:03.367Z,69.93
2023-05-14T00:40:31.291Z,70.40
2023-05-14T00:42:59.148Z,69.03
2023-05-14T00:45:27.393Z,69.03
2023-05-14T00:47:55.986Z,67.96
2023-05-14T00:50:25.967Z,70.08
2023-05-14T00:52:54.796Z,70.08
2023-05-14T00:55:23.740Z,69.39
2023-05-14T00:57:54.641Z,68.01
2023-05-14T01:00:22.780Z,68.67
2023-05-14T01:02:50.814Z,69.57
2023-05-14T01:05:18.957Z,70.53
2023-05-14T01:08:05.265Z,71.00
2023-05-14T01:10:42.609Z,70.87
2023-05-14T01:13:21.116Z,70.45
2023-05-14T01:15:50.655Z,70.08
2023-05-14T01:18:20.636Z,69.15
2023-05-14T01:20:51.418Z,68.97
2023-05-14T01:23:21.264Z,68.45
2023-05-14T01:25:49.127Z,70.81
2023-05-14T01:28:19.973Z,71.30
2023-05-14T01:30:59.115Z,70.78
2023-05-14T01:33:30.674Z,70.65
2023-05-14T01:35:58.643Z,71.45
2023-05-14T01:38:30.793Z,71.48
2023-05-14T01:41:00.422Z,71.03
2023-05-14T01:43:28.703Z,70.86
2023-05-14T01:45:57.022Z,70.16
2023-05-14T01:48:25.139Z,69.64
2023-05-14T01:50:53.133Z,69.40
2023-05-14T01:53:21.048Z,68.70
2023-05-14T01:55:50.206Z,68.07
2023-05-14T01:58:18.024Z,68.39
2023-05-14T02:00:45.780Z,68.06
2023-05-14T02:03:13.912Z,69.33
2023-05-14T02:05:41.761Z,69.47
2023-05-14T02:08:09.540Z,69.78
2023-05-14T02:10:37.357Z,68.99
2023-05-14T02:13:06.567Z,68.58
2023-05-14T02:15:34.441Z,68.55
2023-05-14T02:18:02.378Z,69.87
2023-05-14T02:20:30.238Z,70.14
2023-05-14T02:22:58.032Z,71.70
2023-05-14T02:25:25.972Z,71.90
2023-05-14T02:27:53.706Z,69.86
2023-05-14T02:30:23.448Z,68.90
2023-05-14T02:32:51.633Z,68.73
2023-05-14T02:35:19.840Z,68.54
2023-05-14T02:37:47.769Z,68.18
2023-05-14T02:40:15.971Z,68.15
2023-05-14T02:42:43.863Z,67.86
2023-05-14T02:45:12.302Z,68.16
2023-05-14T02:47:41.828Z,69.07
2023-05-14T02:50:11.260Z,68.64
2023-05-14T02:52:39.089Z,68.50
2023-05-14T02:55:08.162Z,68.76
2023-05-14T02:57:36.045Z,69.68
2023-05-14T03:00:04.553Z,69.30
2023-05-14T03:02:32.792Z,70.20
2023-05-14T03:05:03.431Z,69.92
2023-05-14T03:07:31.229Z,70.46
2023-05-14T03:10:00.381Z,70.27
2023-05-14T03:12:28.249Z,71.00
2023-05-14T03:14:56.099Z,71.23
2023-05-14T03:17:26.214Z,70.58
2023-05-14T03:19:53.813Z,70.29
2023-05-14T03:22:23.035Z,71.10
2023-05-14T03:24:50.793Z,71.44
2023-05-14T03:27:18.853Z,70.56
2023-05-14T03:29:46.642Z,70.02
2023-05-14T03:32:14.536Z,70.50
2023-05-14T03:34:42.764Z,70.53
2023-05-14T03:37:10.546Z,70.25
2023-05-14T03:39:39.910Z,71.15
2023-05-14T03:42:07.885Z,70.76
2023-05-14T03:44:35.799Z,70.72
2023-05-14T03:47:03.695Z,70.46
2023-05-14T03:49:31.582Z,70.47
2023-05-14T03:51:59.478Z,71.04
2023-05-14T03:54:27.383Z,72.27
2023-05-14T03:56:56.498Z,71.17
2023-05-14T03:59:24.327Z,70.25
2023-05-14T04:01:52.121Z,70.46
2023-05-14T04:04:19.953Z,71.35
2023-05-14T04:06:47.794Z,72.34
2023-05-14T04:09:15.606Z,70.80
2023-05-14T04:11:43.716Z,70.26
2023-05-14T04:14:12.909Z,70.21
2023-05-14T04:16:40.967Z,70.81
2023-05-14T04:19:08.840Z,69.81
2023-05-14T04:21:36.640Z,70.59
2023-05-14T04:24:04.966Z,71.16
2023-05-14T04:26:32.725Z,73.09
2023-05-14T04:29:06.813Z,73.73
2023-05-14T04:31:36.415Z,74.75
2023-05-14T04:34:04.284Z,72.71
2023-05-14T04:36:32.372Z,71.40
2023-05-14T04:39:00.397Z,70.45
2023-05-14T04:41:28.229Z,71.46
2023-05-14T04:43:57.542Z,71.63
2023-05-14T04:46:25.557Z,71.47
2023-05-14T04:48:54.722Z,72.01
2023-05-14T04:51:22.479Z,73.15
2023-05-14T04:53:50.364Z,73.07
2023-05-14T04:56:20.514Z,70.46
2023-05-14T04:58:48.292Z,68.97
2023-05-14T05:01:16.413Z,67.33
2023-05-14T05:03:44.565Z,65.60
2023-05-14T05:06:13.810Z,65.66
2023-05-14T05:08:41.748Z,64.99
2023-05-14T05:11:09.594Z,63.78
2023-05-14T05:13:37.625Z,64.67
2023-05-14T05:16:06.230Z,62.57
2023-05-14T05:18:34.215Z,61.72
2023-05-14T05:21:02.550Z,60.65
2023-05-14T05:23:31.601Z,60.62
2023-05-14T05:25:59.366Z,59.00
2023-05-14T05:28:27.151Z,58.44
2023-05-14T05:30:55.343Z,58.42
2023-05-14T05:33:23.353Z,58.70
2023-05-14T05:35:52.472Z,57.28
2023-05-14T05:38:20.921Z,57.88
2023-05-14T05:40:50.083Z,57.68
2023-05-14T05:43:18.034Z,55.82
2023-05-14T05:45:46.512Z,53.89
2023-05-14T05:48:14.492Z,55.58
2023-05-14T05:50:44.166Z,59.27
2023-05-14T05:53:12.424Z,54.78
2023-05-14T05:55:40.250Z,55.57
2023-05-14T05:58:09.625Z,57.33
2023-05-14T06:00:37.719Z,53.84
2023-05-14T06:03:05.931Z,53.16
2023-05-14T06:05:33.891Z,53.33
2023-05-14T06:08:01.672Z,56.06
2023-05-14T06:10:30.000Z,53.56
2023-05-14T06:12:58.050Z,56.00
2023-05-14T06:15:27.261Z,52.66
2023-05-14T06:17:55.084Z,51.89
2023-05-14T06:20:23.094Z,54.01
2023-05-14T06:22:51.185Z,51.50
2023-05-14T06:25:20.759Z,51.35
2023-05-14T06:27:48.562Z,49.92
2023-05-14T06:30:16.788Z,50.30
2023-05-14T06:32:45.986Z,50.43
2023-05-14T06:35:13.948Z,48.91
2023-05-14T06:37:41.684Z,49.16
2023-05-14T06:40:11.226Z,49.21
2023-05-14T06:42:39.210Z,47.58
2023-05-14T06:45:09.010Z,48.38
2023-05-14T06:47:36.839Z,49.45
2023-05-14T06:52:34.900Z,47.71
2023-05-14T06:55:02.679Z,47.81
2023-05-14T06:57:30.571Z,47.69
2023-05-14T06:59:58.341Z,46.48
2023-05-14T07:02:26.243Z,49.98
2023-05-14T07:04:54.046Z,45.53
2023-05-14T07:07:23.176Z,45.43
2023-05-14T07:09:51.042Z,42.48
2023-05-14T07:12:18.963Z,42.04
2023-05-14T07:14:46.806Z,40.80
2023-05-14T07:17:14.560Z,41.77
2023-05-14T07:19:42.883Z,44.60
2023-05-14T07:22:10.630Z,40.13
2023-05-14T07:24:40.987Z,40.57
2023-05-14T07:27:12.469Z,41.94
2023-05-14T07:29:48.362Z,41.10
2023-05-14T07:32:16.313Z,46.30
2023-05-14T07:34:44.406Z,41.04
2023-05-14T07:37:13.370Z,39.95
2023-05-14T07:39:44.888Z,40.93
2023-05-14T07:42:21.946Z,40.95
2023-05-14T07:44:52.722Z,41.62
2023-05-14T07:47:20.750Z,39.99
2023-05-14T07:49:48.683Z,42.48
2023-05-14T07:52:16.520Z,42.66
2023-05-14T07:54:45.723Z,44.51
2023-05-14T07:57:13.541Z,41.32
2023-05-14T07:59:43.866Z,42.48
2023-05-14T08:02:12.749Z,43.35
2023-05-14T08:04:40.628Z,41.19
2023-05-14T08:07:08.575Z,38.94
2023-05-14T08:09:36.580Z,38.13
2023-05-14T08:12:07.463Z,38.73
2023-05-14T08:14:35.229Z,40.89
2023-05-14T08:17:03.466Z,38.88
2023-05-14T08:19:31.338Z,37.52
2023-05-14T08:21:59.128Z,39.18
2023-05-14T08:24:26.981Z,37.51
2023-05-14T08:26:54.834Z,38.43
2023-05-14T08:29:24.095Z,37.30
2023-05-14T08:31:52.056Z,38.08
2023-05-14T08:34:20.032Z,39.81
2023-05-14T08:36:47.792Z,38.47
2023-05-14T08:39:15.733Z,38.84
2023-05-14T08:41:44.892Z,38.53
2023-05-14T08:44:15.000Z,40.23
2023-05-14T08:46:44.220Z,40.66
2023-05-14T08:49:18.779Z,40.85
2023-05-14T08:51:48.487Z,37.89
2023-05-14T08:54:18.015Z,37.56
2023-05-14T08:56:47.250Z,37.36
2023-05-14T08:59:15.331Z,38.79
2023-05-14T09:01:49.457Z,35.22
2023-05-14T09:04:22.132Z,33.87
2023-05-14T09:06:51.983Z,33.95
2023-05-14T09:09:22.416Z,34.34
2023-05-14T09:11:51.753Z,35.83
2023-05-14T09:14:21.159Z,36.77
2023-05-14T09:16:52.187Z,35.45
2023-05-14T09:19:21.850Z,34.70
2023-05-14T09:21:50.860Z,35.02
2023-05-14T09:24:22.733Z,36.97
2023-05-14T09:26:53.552Z,36.36
2023-05-14T09:29:21.664Z,35.94
2023-05-14T09:31:53.157Z,34.56
2023-05-14T09:34:26.284Z,33.96
2023-05-14T09:36:58.321Z,36.82
2023-05-14T09:39:28.005Z,35.64
2023-05-14T09:41:56.485Z,33.88
2023-05-14T09:44:26.498Z,33.55
2023-05-14T09:46:56.903Z,34.59
2023-05-14T09:49:24.788Z,35.21
2023-05-14T09:51:52.743Z,34.14
2023-05-14T09:54:20.987Z,33.47
2023-05-14T09:56:48.840Z,32.05
2023-05-14T09:59:16.811Z,34.11
2023-05-14T10:01:45.021Z,34.33
2023-05-14T10:04:15.877Z,34.64
2023-05-14T10:06:51.825Z,33.48
2023-05-14T10:09:26.329Z,35.22
2023-05-14T10:12:02.282Z,35.60
2023-05-14T10:14:37.396Z,36.23
2023-05-14T10:17:17.932Z,35.88
2023-05-14T10:19:53.518Z,35.96
2023-05-14T10:22:32.328Z,37.04
2023-05-14T10:25:01.435Z,36.48
2023-05-14T10:27:29.335Z,35.57
2023-05-14T10:29:57.896Z,34.09
2023-05-14T10:32:27.199Z,32.97
2023-05-14T10:34:56.374Z,35.42
2023-05-14T10:37:27.134Z,31.63
2023-05-14T10:39:59.909Z,32.35
2023-05-14T10:42:33.168Z,32.92
2023-05-14T10:45:03.011Z,32.07
2023-05-14T10:47:32.632Z,32.81
2023-05-14T10:50:06.110Z,31.91
2023-05-14T10:52:35.187Z,32.09
2023-05-14T10:55:07.788Z,29.74
2023-05-14T10:57:38.796Z,30.86
2023-05-14T11:00:08.973Z,29.58
2023-05-14T11:02:39.648Z,26.79
2023-05-14T11:05:13.946Z,30.01
2023-05-14T11:07:44.244Z,31.93
2023-05-14T11:10:14.774Z,31.32
2023-05-14T11:12:45.270Z,33.50
2023-05-14T11:15:16.585Z,29.89
2023-05-14T11:17:46.108Z,28.78
2023-05-14T11:20:16.782Z,26.41
2023-05-14T11:22:46.428Z,26.13
2023-05-14T11:25:15.839Z,26.01
2023-05-14T11:27:48.001Z,29.11
2023-05-14T11:30:17.853Z,28.93
2023-05-14T11:32:50.287Z,31.08
2023-05-14T11:35:19.819Z,29.19
2023-05-14T11:37:52.493Z,30.39
2023-05-14T11:40:21.442Z,28.25
2023-05-14T11:42:52.686Z,29.12
2023-05-14T11:45:27.286Z,26.72
2023-05-14T11:47:55.226Z,27.92
2023-05-14T11:50:24.955Z,26.98
2023-05-14T11:52:58.262Z,27.92
2023-05-14T11:55:26.224Z,25.89
2023-05-14T11:57:54.735Z,25.55
2023-05-14T12:00:28.791Z,28.27
2023-05-14T12:03:00.126Z,25.54
2023-05-14T12:05:29.355Z,25.21
2023-05-14T12:07:57.225Z,27.21
2023-05-14T12:10:25.367Z,26.92
2023-05-14T12:12:53.452Z,23.62
2023-05-14T12:15:22.197Z,23.69
2023-05-14T12:17:52.977Z,23.70
2023-05-14T12:20:21.124Z,26.96
2023-05-14T12:22:50.303Z,25.84
2023-05-14T12:25:18.355Z,26.14
2023-05-14T12:27:46.744Z,25.59
2023-05-14T12:32:46.409Z,26.01
2023-05-14T12:35:14.355Z,25.27
2023-05-14T12:37:42.839Z,24.94
2023-05-14T12:40:13.278Z,24.98
2023-05-14T12:42:41.625Z,24.52
2023-05-14T12:45:10.175Z,22.53
2023-05-14T12:47:38.429Z,19.82
2023-05-14T12:50:08.007Z,19.43
2023-05-14T12:52:39.251Z,21.07
2023-05-14T12:55:09.972Z,20.94
2023-05-14T12:57:40.140Z,18.19
2023-05-14T13:00:21.578Z,21.17
2023-05-14T13:02:49.432Z,23.44
2023-05-14T13:05:17.383Z,24.40
2023-05-14T13:07:45.333Z,24.83
2023-05-14T13:10:13.291Z,25.39
2023-05-14T13:12:42.442Z,25.13
2023-05-14T13:15:11.738Z,23.94
2023-05-14T13:17:41.391Z,24.67
2023-05-14T13:20:10.645Z,24.01
2023-05-14T13:22:38.518Z,23.58
2023-05-14T13:25:08.909Z,23.08
2023-05-14T13:27:37.019Z,25.15
2023-05-14T13:30:08.013Z,24.34
2023-05-14T13:32:35.833Z,25.17
2023-05-14T13:35:03.707Z,24.93
2023-05-14T13:37:31.534Z,24.99
2023-05-14T13:39:59.293Z,23.47
2023-05-14T13:42:27.106Z,25.21
2023-05-14T13:44:56.249Z,26.54
2023-05-14T13:47:25.894Z,24.91
2023-05-14T13:49:54.277Z,24.66
2023-05-14T13:52:22.455Z,25.16
2023-05-14T13:54:50.347Z,24.66
2023-05-14T13:57:18.248Z,25.24
2023-05-14T13:59:47.980Z,25.32
2023-05-14T14:02:16.525Z,23.18
2023-05-14T14:04:45.731Z,24.29
2023-05-14T14:07:13.383Z,24.52
2023-05-14T14:09:41.143Z,23.83
2023-05-14T14:12:10.031Z,22.50
2023-05-14T14:14:37.890Z,22.59
2023-05-14T14:17:06.173Z,22.37
2023-05-14T14:19:33.932Z,23.94
2023-05-14T14:22:03.499Z,23.61
2023-05-14T14:24:31.592Z,24.64
2023-05-14T14:26:59.389Z,23.82
2023-05-14T14:29:28.832Z,24.18
2023-05-14T14:31:56.693Z,25.27
2023-05-14T14:34:24.627Z,24.79
2023-05-14T14:36:52.463Z,24.60
2023-05-14T14:39:25.171Z,24.80
2023-05-14T14:41:53.055Z,25.20
2023-05-14T14:44:20.801Z,25.58
2023-05-14T14:46:48.706Z,24.39
2023-05-14T14:49:16.475Z,25.62
2023-05-14T14:51:46.912Z,25.26
2023-05-14T14:54:17.048Z,24.58
2023-05-14T14:56:46.398Z,25.34
2023-05-14T14:59:14.163Z,24.79
2023-05-14T15:01:42.076Z,24.21
2023-05-14T15:04:10.120Z,24.10
2023-05-14T15:06:37.994Z,25.24
2023-05-14T15:09:05.776Z,26.66
2023-05-14T15:11:34.456Z,26.05
2023-05-14T15:14:04.900Z,24.78
2023-05-14T15:16:32.720Z,25.27
2023-05-14T15:19:00.665Z,24.48
2023-05-14T15:21:28.784Z,25.26
2023-05-14T15:23:56.928Z,25.52
2023-05-14T15:26:24.707Z,26.31
2023-05-14T15:28:52.486Z,25.42
2023-05-14T15:31:22.398Z,27.33
2023-05-14T15:33:50.251Z,28.01
2023-05-14T15:36:18.088Z,28.19
2023-05-14T15:38:46.064Z,26.54
2023-05-14T15:41:13.932Z,26.74
2023-05-14T15:43:41.712Z,26.31
2023-05-14T15:46:09.629Z,27.23
2023-05-14T15:48:38.871Z,26.72
2023-05-14T15:51:06.743Z,26.70
2023-05-14T15:53:34.572Z,26.57
2023-05-14T15:56:02.516Z,27.74
2023-05-14T15:58:30.374Z,27.61
2023-05-14T16:00:58.101Z,27.12
2023-05-14T16:03:25.970Z,27.52
2023-05-14T16:05:56.497Z,27.27
2023-05-14T16:08:24.353Z,25.96
2023-05-14T16:10:52.211Z,27.60
2023-05-14T16:13:20.729Z,26.66
2023-05-14T16:15:48.736Z,27.06
2023-05-14T16:18:16.748Z,27.64
2023-05-14T16:20:44.661Z,26.77
2023-05-14T16:23:13.958Z,25.78
2023-05-14T16:25:41.710Z,25.79
2023-05-14T16:28:09.527Z,27.76
2023-05-14T16:30:37.388Z,26.05
2023-05-14T16:33:06.263Z,25.19
2023-05-14T16:35:34.978Z,25.80
2023-05-14T16:38:02.855Z,25.20
2023-05-14T16:40:32.059Z,25.55
2023-05-14T16:42:59.814Z,24.99
2023-05-14T16:45:27.762Z,26.00
2023-05-14T16:47:55.563Z,24.68
2023-05-14T16:50:23.405Z,24.46
2023-05-14T16:52:51.650Z,25.31
2023-05-14T16:55:20.565Z,24.96
2023-05-14T16:57:49.860Z,26.02
2023-05-14T17:00:17.960Z,26.49
2023-05-14T17:02:48.950Z,26.46
2023-05-14T17:05:17.474Z,26.95
2023-05-14T17:07:45.370Z,27.54
2023-05-14T17:10:13.197Z,27.34
2023-05-14T17:12:40.947Z,27.53
2023-05-14T17:15:11.708Z,27.73
2023-05-14T17:17:39.771Z,27.35
2023-05-14T17:20:09.075Z,27.94
2023-05-14T17:22:36.974Z,28.46
2023-05-14T17:25:05.777Z,27.93
2023-05-14T17:27:33.790Z,27.57
2023-05-14T17:30:01.745Z,29.01
2023-05-14T17:32:31.209Z,28.82
2023-05-14T17:34:59.306Z,29.46
2023-05-14T17:37:27.285Z,30.22
2023-05-14T17:39:55.189Z,29.12
2023-05-14T17:42:23.083Z,28.89
2023-05-14T17:44:50.813Z,29.08
2023-05-14T17:47:20.573Z,29.51
2023-05-14T17:49:50.866Z,29.54
2023-05-14T17:52:19.145Z,29.49
2023-05-14T17:54:46.886Z,28.93
2023-05-14T17:57:14.788Z,29.64
2023-05-14T17:59:45.090Z,30.93
2023-05-14T18:02:12.928Z,29.82
2023-05-14T18:04:40.773Z,30.69
2023-05-14T18:07:09.986Z,31.10
2023-05-14T18:09:37.766Z,30.72
2023-05-14T18:12:06.522Z,31.64
2023-05-14T18:14:34.304Z,30.78
2023-05-14T18:17:02.363Z,30.72
2023-05-14T18:19:30.409Z,31.09
2023-05-14T18:21:58.273Z,30.33
2023-05-14T18:24:27.471Z,30.48
2023-05-14T18:26:55.950Z,30.79
2023-05-14T18:29:23.903Z,31.97
2023-05-14T18:31:51.783Z,32.06
2023-05-14T18:34:22.074Z,31.80
2023-05-14T18:36:50.102Z,32.96
2023-05-14T18:39:17.953Z,32.56
2023-05-14T18:41:47.132Z,32.71
2023-05-14T18:44:14.886Z,32.52
2023-05-14T18:46:43.878Z,33.73
2023-05-14T18:49:11.723Z,33.68
2023-05-14T18:51:39.589Z,34.22
2023-05-14T18:54:07.389Z,34.95
2023-05-14T18:56:37.819Z,35.86
2023-05-14T18:59:07.011Z,36.38
2023-05-14T19:01:34.936Z,37.37
2023-05-14T19:04:05.142Z,37.18
2023-05-14T19:06:33.681Z,37.47
2023-05-14T19:09:02.545Z,38.75
2023-05-14T19:11:30.400Z,39.39
2023-05-14T19:13:58.333Z,40.43
2023-05-14T19:16:27.725Z,41.42
2023-05-14T19:18:55.431Z,42.43
2023-05-14T19:21:23.330Z,45.33
2023-05-14T19:23:51.120Z,47.23
2023-05-14T19:26:19.638Z,48.67
2023-05-14T19:28:47.872Z,51.17
2023-05-14T19:31:16.122Z,52.87
2023-05-14T19:33:47.051Z,53.07
2023-05-14T19:36:14.798Z,55.57
2023-05-14T19:38:44.747Z,56.87
2023-05-14T19:41:12.586Z,57.72
2023-05-14T19:43:40.478Z,59.52
2023-05-14T19:46:08.574Z,59.56
2023-05-14T19:48:36.421Z,60.47
2023-05-14T19:51:05.639Z,60.92
2023-05-14T19:53:33.604Z,63.23
2023-05-14T19:56:01.967Z,63.43
2023-05-14T19:58:29.814Z,63.31
2023-05-14T20:00:58.304Z,65.43
2023-05-14T20:03:26.561Z,65.97
2023-05-14T20:05:55.889Z,65.99
2023-05-14T20:08:25.343Z,66.34
2023-05-14T20:10:53.273Z,66.59
2023-05-14T20:13:23.121Z,67.06
2023-05-14T20:15:52.359Z,66.17
2023-05-14T20:18:21.670Z,66.58
2023-05-14T20:21:38.920Z,68.05
2023-05-14T20:24:20.712Z,67.61
2023-05-14T20:26:48.520Z,67.56
2023-05-14T20:29:18.691Z,67.20
2023-05-14T20:31:46.926Z,66.85
2023-05-14T20:34:14.730Z,67.96
2023-05-14T20:36:42.794Z,68.41
2023-05-14T20:39:14.140Z,67.78
2023-05-14T20:41:45.545Z,66.37
2023-05-14T20:44:14.455Z,65.85
2023-05-14T20:46:43.457Z,66.18
2023-05-14T20:49:13.648Z,65.99
2023-05-14T20:51:42.059Z,65.23
2023-05-14T20:54:09.976Z,64.80
2023-05-14T20:56:37.745Z,64.03
2023-05-14T20:59:13.323Z,62.98
2023-05-14T21:01:42.563Z,62.75
2023-05-14T21:04:10.631Z,62.14
2023-05-14T21:06:40.931Z,63.89
2023-05-14T21:09:08.902Z,62.89
2023-05-14T21:11:36.652Z,63.22
2023-05-14T21:14:04.582Z,62.96
2023-05-14T21:16:34.204Z,63.01
2023-05-14T21:19:02.582Z,62.86
2023-05-14T21:21:30.440Z,63.71
2023-05-14T21:23:59.325Z,62.97
2023-05-14T21:26:27.486Z,64.10
2023-05-14T21:28:55.277Z,64.58
2023-05-14T21:31:24.521Z,65.41
2023-05-14T21:33:53.659Z,65.16
2023-05-14T21:36:21.530Z,64.31
2023-05-14T21:38:49.427Z,63.26
2023-05-14T21:41:17.492Z,64.08
2023-05-14T21:43:45.547Z,63.24
2023-05-14T21:46:13.668Z,62.69
2023-05-14T21:48:41.599Z,62.62
2023-05-14T21:51:10.870Z,62.75
2023-05-14T21:53:38.741Z,63.17
2023-05-14T21:56:08.215Z,63.87
2023-05-14T21:58:37.075Z,63.51
2023-05-14T22:01:05.063Z,63.37
2023-05-14T22:03:33.180Z,64.49
2023-05-14T22:06:01.571Z,64.17
2023-05-14T22:08:31.067Z,64.63
2023-05-14T22:10:59.026Z,64.65
2023-05-14T22:13:26.915Z,63.82
2023-05-14T22:16:01.466Z,64.13
2023-05-14T22:18:37.346Z,63.91
2023-05-14T22:21:06.840Z,64.35
2023-05-14T22:23:36.149Z,63.88
2023-05-14T22:26:05.477Z,65.42
2023-05-14T22:28:33.266Z,63.79
2023-05-14T22:31:01.210Z,64.48
2023-05-14T22:33:29.019Z,64.24
2023-05-14T22:35:56.832Z,66.52
2023-05-14T22:38:24.732Z,64.94
2023-05-14T22:40:53.878Z,65.44
2023-05-14T22:43:21.684Z,65.51
2023-05-14T22:45:49.612Z,65.15
2023-05-14T22:48:17.778Z,65.55
2023-05-14T22:50:45.646Z,66.60
2023-05-14T22:53:13.544Z,66.05
2023-05-14T22:55:41.424Z,65.27
2023-05-14T22:58:10.667Z,66.62
2023-05-14T23:00:38.516Z,67.08
2023-05-14T23:03:06.449Z,67.50
2023-05-14T23:05:34.501Z,67.14
2023-05-14T23:08:02.482Z,68.38
2023-05-14T23:10:30.333Z,68.60
2023-05-14T23:12:58.176Z,67.32
2023-05-14T23:15:27.704Z,67.57
2023-05-14T23:17:55.762Z,67.29
2023-05-14T23:20:23.630Z,67.40
2023-05-14T23:22:51.460Z,67.94
2023-05-14T23:25:19.375Z,67.44
2023-05-14T23:27:47.931Z,66.55
2023-05-14T23:30:15.955Z,67.17
2023-05-14T23:32:45.281Z,67.55
2023-05-14T23:35:13.159Z,68.13
2023-05-14T23:37:46.993Z,68.73
2023-05-14T23:40:15.602Z,68.05
2023-05-14T23:42:44.765Z,67.37
2023-05-14T23:45:14.216Z,66.83
2023-05-14T23:47:42.637Z,66.65
2023-05-14T23:50:12.232Z,66.54
2023-05-14T23:52:40.243Z,67.17
2023-05-14T23:55:08.916Z,69.04
2023-05-14T23:57:37.043Z,69.08
